createdAt,value
2023-02-22T00:00:59.935Z,100250.06
2023-02-22T00:03:32.485Z,100257.16
2023-02-22T00:06:05.272Z,100258.88
2023-02-22T00:08:37.546Z,100258.88
2023-02-22T00:11:10.708Z,100263.22
2023-02-22T00:13:38.901Z,100261.47
2023-02-22T00:16:06.983Z,100252.69
2023-02-22T00:18:34.223Z,100244.06
2023-02-22T00:21:01.951Z,100245.09
2023-02-22T00:23:32.073Z,100246.00
2023-02-22T00:26:00.496Z,100253.00
2023-02-22T00:28:28.088Z,100257.44
2023-02-22T00:30:55.589Z,100269.00
2023-02-22T00:33:23.017Z,100268.84
2023-02-22T00:35:50.362Z,100264.56
2023-02-22T00:38:19.365Z,100272.31
2023-02-22T00:40:46.982Z,100268.91
2023-02-22T00:43:14.246Z,100282.03
2023-02-22T00:45:42.245Z,100281.16
2023-02-22T00:48:09.995Z,100288.25
2023-02-22T00:50:37.678Z,100275.09
2023-02-22T00:53:06.119Z,100282.13
2023-02-22T00:55:36.191Z,100291.91
2023-02-22T00:58:05.358Z,100291.94
2023-02-22T01:00:39.625Z,100298.28
2023-02-22T01:03:08.727Z,100306.31
2023-02-22T01:05:38.341Z,100305.31
2023-02-22T01:08:07.914Z,100303.66
2023-02-22T01:10:36.521Z,100307.19
2023-02-22T01:13:09.283Z,100310.84
2023-02-22T01:15:39.066Z,100313.41
2023-02-22T01:18:07.087Z,100311.66
2023-02-22T01:20:34.494Z,100299.56
2023-02-22T01:23:03.908Z,100307.56
2023-02-22T01:25:32.398Z,100308.56
2023-02-22T01:28:01.383Z,100303.38
2023-02-22T01:30:32.987Z,100312.19
2023-02-22T01:33:02.377Z,100310.47
2023-02-22T01:35:33.918Z,100311.34
2023-02-22T01:38:01.160Z,100313.19
2023-02-22T01:40:34.607Z,100314.03
2023-02-22T01:43:06.719Z,100327.28
2023-02-22T01:45:34.009Z,100325.53
2023-02-22T01:48:19.868Z,100332.59
2023-02-22T01:51:16.350Z,100338.59
2023-02-22T01:53:52.215Z,100345.59
2023-02-22T01:56:21.204Z,100346.31
2023-02-22T01:58:56.945Z,100342.78
2023-02-22T02:01:26.087Z,100347.06
2023-02-22T02:03:58.360Z,100338.19
2023-02-22T02:06:28.105Z,100339.16
2023-02-22T02:09:14.218Z,100336.59
2023-02-22T02:11:42.571Z,100343.72
2023-02-22T02:14:11.253Z,100339.50
2023-02-22T02:16:42.001Z,100339.50
2023-02-22T02:19:53.938Z,100348.41
2023-02-22T02:22:49.326Z,100337.06
2023-02-22T02:25:32.420Z,100353.69
2023-02-22T02:28:24.117Z,100343.22
2023-02-22T02:31:06.303Z,100346.72
2023-02-22T02:33:41.802Z,100361.69
2023-02-22T02:36:20.937Z,100354.59
2023-02-22T02:38:56.653Z,100359.81
2023-02-22T02:41:49.432Z,100371.34
2023-02-22T02:44:37.997Z,100369.69
2023-02-22T02:47:08.121Z,100373.38
2023-02-22T02:49:51.817Z,100378.75
2023-02-22T02:52:21.698Z,100372.75
2023-02-22T02:54:50.791Z,100382.41
2023-02-22T02:57:17.911Z,100385.94
2023-02-22T02:59:46.499Z,100380.94
2023-02-22T03:02:49.348Z,100383.50
2023-02-22T03:05:47.921Z,100387.09
2023-02-22T03:08:27.482Z,100382.75
2023-02-22T03:11:15.435Z,100393.34
2023-02-22T03:13:48.656Z,100396.88
2023-02-22T03:16:45.365Z,100385.63
2023-02-22T03:19:27.903Z,100388.38
2023-02-22T03:22:05.673Z,100406.72
2023-02-22T03:24:43.237Z,100420.88
2023-02-22T03:27:17.934Z,100420.03
2023-02-22T03:29:46.044Z,100430.69
2023-02-22T03:32:18.023Z,100427.34
2023-02-22T03:34:56.868Z,100431.84
2023-02-22T03:37:30.093Z,100432.09
2023-02-22T03:40:00.434Z,100433.00
2023-02-22T03:42:37.801Z,100432.13
2023-02-22T03:45:10.148Z,100432.22
2023-02-22T03:48:06.949Z,100436.69
2023-02-22T03:50:37.039Z,100427.09
2023-02-22T03:53:05.401Z,100435.03
2023-02-22T03:55:33.155Z,100435.03
2023-02-22T03:58:04.991Z,100421.75
2023-02-22T04:00:34.227Z,100433.09
2023-02-22T04:03:02.543Z,100424.31
2023-02-22T04:05:29.611Z,100430.41
2023-02-22T04:07:57.788Z,100428.66
2023-02-22T04:10:25.443Z,100435.56
2023-02-22T04:12:52.849Z,100435.50
2023-02-22T04:15:23.391Z,100438.91
2023-02-22T04:17:52.645Z,100434.47
2023-02-22T04:20:20.151Z,100449.41
2023-02-22T04:22:47.644Z,100453.72
2023-02-22T04:25:15.498Z,100460.81
2023-02-22T04:27:44.136Z,100466.13
2023-02-22T04:30:13.124Z,100462.59
2023-02-22T04:32:40.828Z,100456.47
2023-02-22T04:35:08.407Z,100459.16
2023-02-22T04:37:35.952Z,100454.88
2023-02-22T04:40:08.778Z,100464.56
2023-02-22T04:42:37.654Z,100462.91
2023-02-22T04:45:08.090Z,100469.94
2023-02-22T04:47:36.431Z,100473.50
2023-02-22T04:50:09.325Z,100485.81
2023-02-22T04:52:36.797Z,100478.03
2023-02-22T04:55:04.979Z,100484.97
2023-02-22T04:57:32.478Z,100490.31
2023-02-22T04:59:59.737Z,100499.13
2023-02-22T05:02:32.418Z,100501.84
2023-02-22T05:04:59.532Z,100500.09
2023-02-22T05:07:54.884Z,100507.94
2023-02-22T05:10:21.898Z,100499.25
2023-02-22T05:12:50.217Z,100511.50
2023-02-22T05:15:19.905Z,100516.81
2023-02-22T05:17:48.928Z,100509.78
2023-02-22T05:20:22.449Z,100526.44
2023-02-22T05:22:52.046Z,100529.94
2023-02-22T05:25:20.985Z,100532.66
2023-02-22T05:27:53.025Z,100529.97
2023-02-22T05:30:35.746Z,100537.91
2023-02-22T05:33:03.295Z,100523.91
2023-02-22T05:35:33.826Z,100534.34
2023-02-22T05:38:03.261Z,100539.63
2023-02-22T05:40:31.465Z,100543.09
2023-02-22T05:42:59.824Z,100546.63
2023-02-22T05:45:28.004Z,100554.44
2023-02-22T05:47:56.370Z,100555.28
2023-02-22T05:50:24.941Z,100553.63
2023-02-22T05:53:18.563Z,100557.09
2023-02-22T05:55:46.620Z,100562.47
2023-02-22T05:58:15.211Z,100562.38
2023-02-22T06:00:42.432Z,100575.56
2023-02-22T06:03:11.118Z,100582.56
2023-02-22T06:05:39.122Z,100593.09
2023-02-22T06:08:31.614Z,100600.09
2023-02-22T06:10:58.888Z,100588.81
2023-02-22T06:13:26.328Z,100591.34
2023-02-22T06:15:53.409Z,100597.44
2023-02-22T06:18:21.321Z,100602.69
2023-02-22T06:20:48.411Z,100602.66
2023-02-22T06:23:16.199Z,100598.25
2023-02-22T06:25:46.334Z,100606.97
2023-02-22T06:28:18.319Z,100606.84
2023-02-22T06:30:46.256Z,100606.75
2023-02-22T06:33:13.971Z,100609.22
2023-02-22T06:35:41.069Z,100608.16
2023-02-22T06:38:08.842Z,100615.72
2023-02-22T06:40:37.204Z,100613.75
2023-02-22T06:43:04.555Z,100626.66
2023-02-22T06:45:31.770Z,100625.69
2023-02-22T06:48:01.631Z,100633.41
2023-02-22T06:50:31.419Z,100625.59
2023-02-22T06:53:00.021Z,100644.09
2023-02-22T06:55:29.534Z,100638.97
2023-02-22T06:57:56.988Z,100627.59
2023-02-22T07:00:26.125Z,100629.41
2023-02-22T07:02:54.305Z,100629.28
2023-02-22T07:05:23.029Z,100631.84
2023-02-22T07:07:52.760Z,100635.22
2023-02-22T07:10:29.417Z,100626.44
2023-02-22T07:12:57.165Z,100629.13
2023-02-22T07:15:26.061Z,100638.84
2023-02-22T07:17:56.060Z,100638.88
2023-02-22T07:20:25.073Z,100642.31
2023-02-22T07:22:56.554Z,100640.34
2023-02-22T07:25:24.666Z,100649.00
2023-02-22T07:27:54.947Z,100646.06
2023-02-22T07:30:25.959Z,100651.97
2023-02-22T07:32:55.233Z,100656.81
2023-02-22T07:35:36.736Z,100657.41
2023-02-22T07:38:09.885Z,100653.78
2023-02-22T07:40:40.375Z,100651.91
2023-02-22T07:43:21.195Z,100650.19
2023-02-22T07:45:51.118Z,100653.63
2023-02-22T07:48:23.073Z,100650.63
2023-02-22T07:50:50.401Z,100641.44
2023-02-22T07:53:28.657Z,100651.72
2023-02-22T07:56:05.676Z,100644.91
2023-02-22T07:58:33.142Z,100656.78
2023-02-22T08:01:04.574Z,100656.25
2023-02-22T08:03:38.538Z,100653.28
2023-02-22T08:06:07.737Z,100656.94
2023-02-22T08:08:35.416Z,100661.97
2023-02-22T08:11:06.740Z,100659.91
2023-02-22T08:13:37.275Z,100657.97
2023-02-22T08:16:04.617Z,100659.63
2023-02-22T08:18:33.171Z,100664.91
2023-02-22T08:21:00.309Z,100671.09
2023-02-22T08:23:27.653Z,100667.25
2023-02-22T08:25:55.023Z,100649.47
2023-02-22T08:28:24.642Z,100659.81
2023-02-22T08:30:52.604Z,100664.41
2023-02-22T08:33:20.873Z,100656.16
2023-02-22T08:35:49.846Z,100657.75
2023-02-22T08:38:40.500Z,100669.56
2023-02-22T08:41:10.040Z,100663.47
2023-02-22T08:43:37.682Z,100676.31
2023-02-22T08:46:11.522Z,100658.28
2023-02-22T08:48:50.607Z,100680.16
2023-02-22T08:51:20.125Z,100672.81
2023-02-22T08:53:47.590Z,100690.53
2023-02-22T08:56:14.843Z,100668.16
2023-02-22T08:58:42.227Z,100694.25
2023-02-22T09:01:09.482Z,100690.78
2023-02-22T09:03:36.884Z,100694.34
2023-02-22T09:06:05.305Z,100692.94
2023-02-22T09:08:32.803Z,100690.47
2023-02-22T09:10:59.886Z,100700.44
2023-02-22T09:13:29.396Z,100708.56
2023-02-22T09:15:56.420Z,100710.47
2023-02-22T09:18:25.579Z,100712.69
2023-02-22T09:20:54.878Z,100720.75
2023-02-22T09:23:22.428Z,100707.47
2023-02-22T09:25:49.738Z,100715.44
2023-02-22T09:28:17.214Z,100722.53
2023-02-22T09:30:44.654Z,100703.63
2023-02-22T09:33:15.677Z,100710.31
2023-02-22T09:35:46.604Z,100714.56
2023-02-22T09:38:26.107Z,100719.56
2023-02-22T09:41:04.687Z,100706.47
2023-02-22T09:44:00.189Z,100729.81
2023-02-22T09:46:48.142Z,100716.97
2023-02-22T09:49:19.503Z,100722.41
2023-02-22T09:52:05.613Z,100728.13
2023-02-22T09:54:52.862Z,100715.56
2023-02-22T09:57:32.182Z,100707.66
2023-02-22T10:00:13.750Z,100727.25
2023-02-22T10:02:53.437Z,100718.19
2023-02-22T10:05:38.079Z,100717.06
2023-02-22T10:08:10.822Z,100712.91
2023-02-22T10:11:02.215Z,100717.03
2023-02-22T10:13:39.446Z,100718.22
2023-02-22T10:16:20.585Z,100723.28
2023-02-22T10:19:10.944Z,100716.66
2023-02-22T10:21:50.208Z,100710.59
2023-02-22T10:24:20.587Z,100724.78
2023-02-22T10:26:48.792Z,100712.44
2023-02-22T10:29:31.029Z,100715.69
2023-02-22T10:32:02.153Z,100709.84
2023-02-22T10:34:39.791Z,100701.72
2023-02-22T10:37:24.202Z,100705.47
2023-02-22T10:39:56.363Z,100706.94
2023-02-22T10:42:27.474Z,100707.50
2023-02-22T10:44:54.863Z,100703.03
2023-02-22T10:47:26.074Z,100699.88
2023-02-22T10:49:58.890Z,100710.09
2023-02-22T10:52:34.866Z,100704.44
2023-02-22T10:55:14.952Z,100704.38
2023-02-22T10:57:47.984Z,100709.50
2023-02-22T11:00:37.437Z,100714.50
2023-02-22T11:03:22.294Z,100707.16
2023-02-22T11:05:51.062Z,100698.84
2023-02-22T11:08:22.059Z,100713.84
2023-02-22T11:10:50.969Z,100702.44
2023-02-22T11:13:32.733Z,100718.31
2023-02-22T11:16:27.135Z,100698.53
2023-02-22T11:19:02.773Z,100707.59
2023-02-22T11:21:32.736Z,100711.22
2023-02-22T11:24:10.594Z,100711.75
2023-02-22T11:26:51.985Z,100708.16
2023-02-22T11:29:34.404Z,100706.50
2023-02-22T11:32:13.554Z,100700.75
2023-02-22T11:34:45.429Z,100712.91
2023-02-22T11:37:31.890Z,100709.25
2023-02-22T11:40:15.521Z,100703.38
2023-02-22T11:42:44.988Z,100706.44
2023-02-22T11:45:22.870Z,100711.81
2023-02-22T11:47:56.265Z,100692.25
2023-02-22T11:50:33.498Z,100703.66
2023-02-22T11:53:25.813Z,100704.66
2023-02-22T11:56:14.097Z,100718.88
2023-02-22T11:58:45.807Z,100722.31
2023-02-22T12:06:02.150Z,100711.59
2023-02-22T12:08:57.059Z,100716.78
2023-02-22T12:12:04.320Z,100709.69
2023-02-22T12:15:06.656Z,100711.69
2023-02-22T12:17:43.644Z,100707.44
2023-02-22T12:20:25.049Z,100687.81
2023-02-22T12:23:02.171Z,100696.78
2023-02-22T12:25:35.792Z,100693.00
2023-02-22T12:28:24.796Z,100698.50
2023-02-22T12:31:30.673Z,100703.13
2023-02-22T12:34:31.183Z,100719.72
2023-02-22T12:37:32.958Z,100711.53
2023-02-22T12:40:30.996Z,100713.75
2023-02-22T12:43:30.751Z,100712.81
2023-02-22T12:46:19.595Z,100720.25
2023-02-22T12:49:08.499Z,100732.97
2023-02-22T12:51:57.777Z,100721.38
2023-02-22T12:58:52.265Z,100725.38
2023-02-22T13:01:30.719Z,100737.03
2023-02-22T13:04:20.488Z,100716.47
2023-02-22T13:06:56.194Z,100721.72
2023-02-22T13:09:56.962Z,100712.66
2023-02-22T13:12:52.624Z,100707.41
2023-02-22T13:15:22.604Z,100710.19
2023-02-22T13:18:21.533Z,100719.09
2023-02-22T13:21:07.100Z,100728.78
2023-02-22T13:23:47.307Z,100736.22
2023-02-22T13:26:47.045Z,100735.91
2023-02-22T13:29:27.121Z,100729.81
2023-02-22T13:35:15.579Z,100731.44
2023-02-22T13:38:16.150Z,100746.50
2023-02-22T13:41:32.714Z,100744.97
2023-02-22T13:44:25.743Z,100738.63
2023-02-22T13:47:11.599Z,100746.53
2023-02-22T13:50:10.965Z,100747.38
2023-02-22T13:52:41.088Z,100734.06
2023-02-22T13:55:21.021Z,100734.91
2023-02-22T13:58:17.310Z,100730.84
2023-02-22T14:01:03.023Z,100748.09
2023-02-22T14:03:36.731Z,100752.13
2023-02-22T14:06:53.620Z,100750.72
2023-02-22T14:09:47.162Z,100765.66
2023-02-22T14:12:30.095Z,100772.59
2023-02-22T14:15:28.744Z,100763.88
2023-02-22T14:18:03.938Z,100772.38
2023-02-22T14:20:59.494Z,100771.22
2023-02-22T14:23:37.866Z,100778.28
2023-02-22T14:26:20.380Z,100779.22
2023-02-22T14:29:24.977Z,100766.41
2023-02-22T14:32:01.100Z,100771.25
2023-02-22T14:34:58.384Z,100786.25
2023-02-22T14:37:37.549Z,100779.56
2023-02-22T14:40:34.205Z,100787.63
2023-02-22T14:43:15.996Z,100793.22
2023-02-22T14:45:53.676Z,100773.59
2023-02-22T14:48:39.700Z,100794.00
2023-02-22T14:51:25.113Z,100791.44
2023-02-22T14:54:09.047Z,100793.34
2023-02-22T14:56:49.288Z,100789.84
2023-02-22T14:59:26.509Z,100786.50
2023-02-22T15:02:12.260Z,100774.25
2023-02-22T15:04:50.218Z,100802.41
2023-02-22T15:07:30.040Z,100806.19
2023-02-22T15:10:28.431Z,100807.16
2023-02-22T15:13:09.832Z,100814.56
2023-02-22T15:15:46.965Z,100804.31
2023-02-22T15:18:30.263Z,100807.97
2023-02-22T15:21:13.322Z,100806.19
2023-02-22T15:23:41.970Z,100819.53
2023-02-22T15:27:00.657Z,100820.59
2023-02-22T15:29:57.006Z,100826.75
2023-02-22T15:32:27.552Z,100827.66
2023-02-22T15:34:56.642Z,100827.69
2023-02-22T15:37:28.200Z,100837.44
2023-02-22T15:40:07.829Z,100827.84
2023-02-22T15:42:50.476Z,100845.47
2023-02-22T15:45:26.371Z,100846.41
2023-02-22T15:47:58.839Z,100840.34
2023-02-22T15:50:34.852Z,100852.56
2023-02-22T15:53:21.121Z,100850.88
2023-02-22T15:55:54.928Z,100860.66
2023-02-22T15:58:29.063Z,100865.94
2023-02-22T16:01:05.914Z,100871.25
2023-02-22T16:03:54.440Z,100874.88
2023-02-22T16:06:25.117Z,100875.78
2023-02-22T16:08:55.967Z,100883.69
2023-02-22T16:11:31.814Z,100884.66
2023-02-22T16:14:17.580Z,100880.28
2023-02-22T16:17:37.794Z,100890.88
2023-02-22T16:20:11.692Z,100902.38
2023-02-22T16:22:50.781Z,100911.25
2023-02-22T16:25:22.563Z,100904.25
2023-02-22T16:28:03.289Z,100909.47
2023-02-22T16:30:38.477Z,100916.53
2023-02-22T16:33:13.893Z,100922.72
2023-02-22T16:35:52.746Z,100927.06
2023-02-22T16:38:24.707Z,100932.41
2023-02-22T16:40:55.557Z,100940.34
2023-02-22T16:43:25.410Z,100931.59
2023-02-22T16:45:55.580Z,100934.28
2023-02-22T16:48:25.246Z,100943.97
2023-02-22T16:50:55.590Z,100932.66
2023-02-22T16:53:26.455Z,100949.34
2023-02-22T16:55:58.215Z,100947.59
2023-02-22T16:58:28.046Z,100948.53
2023-02-22T17:00:57.593Z,100952.06
2023-02-22T17:03:28.241Z,100943.25
2023-02-22T17:05:58.023Z,100952.97
2023-02-22T17:08:26.612Z,100951.25
2023-02-22T17:11:04.331Z,100951.44
2023-02-22T17:13:34.955Z,100968.94
2023-02-22T17:16:02.350Z,100962.03
2023-02-22T17:18:34.070Z,100968.16
2023-02-22T17:21:05.576Z,100959.38
2023-02-22T17:23:33.712Z,100966.47
2023-02-22T17:26:02.485Z,100976.06
2023-02-22T17:28:30.920Z,100976.06
2023-02-22T17:31:03.848Z,100969.09
2023-02-22T17:33:40.434Z,100976.16
2023-02-22T17:36:08.510Z,100966.59
2023-02-22T17:38:36.798Z,100966.63
2023-02-22T17:43:49.586Z,100964.06
2023-02-22T17:46:21.834Z,100959.72
2023-02-22T17:48:49.846Z,100969.31
2023-02-22T17:51:18.312Z,100972.03
2023-02-22T17:53:45.411Z,100982.59
2023-02-22T17:56:19.491Z,100987.91
2023-02-22T17:58:53.585Z,100994.94
2023-02-22T18:01:32.136Z,100999.31
2023-02-22T18:04:02.754Z,100995.88
2023-02-22T18:06:33.244Z,100999.34
2023-02-22T18:09:01.733Z,100995.03
2023-02-22T18:11:37.044Z,100995.03
2023-02-22T18:14:10.057Z,100994.16
2023-02-22T18:16:39.804Z,101000.34
2023-02-22T18:19:08.114Z,101008.25
2023-02-22T18:21:36.513Z,100996.00
2023-02-22T18:24:04.304Z,101001.28
2023-02-22T18:26:32.476Z,101017.94
2023-02-22T18:29:01.204Z,101017.13
2023-02-22T18:31:35.414Z,101004.94
2023-02-22T18:34:03.262Z,101012.03
2023-02-22T18:36:30.879Z,101017.31
2023-02-22T18:38:58.158Z,101019.03
2023-02-22T18:41:26.057Z,101022.56
2023-02-22T18:43:55.699Z,101027.00
2023-02-22T18:46:32.886Z,101028.78
2023-02-22T18:49:03.275Z,101031.41
2023-02-22T18:51:31.122Z,101048.97
2023-02-22T18:54:02.529Z,101048.97
2023-02-22T18:56:31.531Z,101053.38
2023-02-22T18:59:02.515Z,101057.78
2023-02-22T19:01:31.996Z,101071.78
2023-02-22T19:04:07.596Z,101066.53
2023-02-22T19:06:37.004Z,101067.44
2023-02-22T19:09:08.588Z,101059.59
2023-02-22T19:12:03.754Z,101063.97
2023-02-22T19:14:33.454Z,101072.75
2023-02-22T19:17:07.602Z,101077.13
2023-02-22T19:19:35.200Z,101084.97
2023-02-22T19:22:05.049Z,101082.34
2023-02-22T19:24:33.239Z,101076.22
2023-02-22T19:27:00.876Z,101076.22
2023-02-22T19:29:31.353Z,101085.88
2023-02-22T19:32:00.973Z,101074.53
2023-02-22T19:34:28.200Z,101071.91
2023-02-22T19:36:56.167Z,101090.31
2023-02-22T19:39:24.256Z,101082.44
2023-02-22T19:41:52.592Z,101089.47
2023-02-22T19:44:19.708Z,101083.34
2023-02-22T19:46:47.690Z,101092.09
2023-02-22T19:49:15.833Z,101084.22
2023-02-22T19:51:43.365Z,101078.13
2023-02-22T19:54:17.523Z,101099.09
2023-02-22T19:56:45.177Z,101086.03
2023-02-22T19:59:17.166Z,101091.28
2023-02-22T20:01:45.618Z,101093.03
2023-02-22T20:04:18.398Z,101103.53
2023-02-22T20:06:54.029Z,101111.44
2023-02-22T20:09:43.346Z,101103.56
2023-02-22T20:12:10.858Z,101102.69
2023-02-22T20:14:40.442Z,101107.97
2023-02-22T20:17:09.056Z,101108.84
2023-02-22T20:19:37.739Z,101101.88
2023-02-22T20:22:05.337Z,101115.84
2023-02-22T20:24:32.636Z,101107.97
2023-02-22T20:27:00.128Z,101108.84
2023-02-22T20:29:29.997Z,101108.81
2023-02-22T20:32:02.158Z,101102.69
2023-02-22T20:34:35.164Z,101094.84
2023-02-22T20:37:17.795Z,101095.69
2023-02-22T20:39:45.283Z,101114.94
2023-02-22T20:42:12.453Z,101100.06
2023-02-22T20:44:39.850Z,101091.34
2023-02-22T20:47:09.119Z,101112.34
2023-02-22T20:49:37.509Z,101101.88
2023-02-22T20:52:04.856Z,101110.63
2023-02-22T20:54:39.111Z,101111.44
2023-02-22T20:57:08.231Z,101108.84
2023-02-22T20:59:36.185Z,101105.34
2023-02-22T21:02:03.366Z,101113.25
2023-02-22T21:04:35.349Z,101104.53
2023-02-22T21:07:03.584Z,101107.13
2023-02-22T21:09:32.597Z,101104.53
2023-02-22T21:11:59.748Z,101104.53
2023-02-22T21:14:27.078Z,101111.53
2023-02-22T21:16:54.306Z,101107.16
2023-02-22T21:19:28.255Z,101111.53
2023-02-22T21:21:58.302Z,101113.28
2023-02-22T21:24:27.538Z,101119.41
2023-02-22T21:26:58.793Z,101112.41
2023-02-22T21:29:29.877Z,101118.56
2023-02-22T21:32:06.430Z,101112.41
2023-02-22T21:34:34.570Z,101104.56
2023-02-22T21:37:01.839Z,101112.44
2023-02-22T21:39:29.380Z,101112.44
2023-02-22T21:42:00.751Z,101119.47
2023-02-22T21:44:28.989Z,101106.34
2023-02-22T21:46:56.171Z,101115.09
2023-02-22T21:49:23.824Z,101111.59
2023-02-22T21:51:52.706Z,101111.59
2023-02-22T21:54:20.304Z,101119.47
2023-02-22T21:56:48.061Z,101110.75
2023-02-22T21:59:20.604Z,101106.34
2023-02-22T22:01:56.074Z,101109.88
2023-02-22T22:04:27.732Z,101106.38
2023-02-22T22:06:57.549Z,101107.28
2023-02-22T22:09:32.547Z,101109.03
2023-02-22T22:12:03.094Z,101112.53
2023-02-22T22:14:33.794Z,101106.41
2023-02-22T22:17:01.218Z,101104.66
2023-02-22T22:19:30.301Z,101113.41
2023-02-22T22:21:58.373Z,101107.28
2023-02-22T22:24:28.657Z,101100.25
2023-02-22T22:26:56.261Z,101105.53
2023-02-22T22:29:26.706Z,101104.63
2023-02-22T22:31:53.741Z,101109.88
2023-02-22T22:34:24.436Z,101111.63
2023-02-22T22:36:51.618Z,101105.50
2023-02-22T22:39:21.200Z,101107.25
2023-02-22T22:41:48.467Z,101118.63
2023-02-22T22:44:22.275Z,101111.63
2023-02-22T22:46:53.819Z,101110.75
2023-02-22T22:49:23.480Z,101113.38
2023-02-22T22:51:51.428Z,101112.53
2023-02-22T22:54:18.772Z,101128.28
2023-02-22T22:56:50.920Z,101116.91
2023-02-22T22:59:18.836Z,101126.53
2023-02-22T23:01:45.784Z,101123.91
2023-02-22T23:04:18.918Z,101135.28
2023-02-22T23:06:50.035Z,101131.78
2023-02-22T23:09:21.829Z,101125.69
2023-02-22T23:11:55.292Z,101129.16
2023-02-22T23:14:25.255Z,101147.56
2023-02-22T23:16:53.504Z,101144.03
2023-02-22T23:19:20.813Z,101139.66
2023-02-22T23:21:49.456Z,101141.41
2023-02-22T23:24:19.419Z,101148.41
2023-02-22T23:26:48.791Z,101151.94
2023-02-22T23:29:19.241Z,101150.16
2023-02-22T23:31:48.936Z,101152.81
2023-02-22T23:34:21.519Z,101151.03
2023-02-22T23:36:49.294Z,101156.28
2023-02-22T23:39:22.641Z,101159.81
2023-02-22T23:41:51.355Z,101161.56
2023-02-22T23:44:19.916Z,101165.03
2023-02-22T23:46:48.878Z,101165.03
2023-02-22T23:49:20.789Z,101163.31
2023-02-22T23:51:48.802Z,101173.81
2023-02-22T23:54:21.512Z,101166.81
2023-02-22T23:56:58.187Z,101170.28
2023-02-22T23:59:27.088Z,101176.44
